^^
Saratoga-Weather Station Historical Data
Daily Summary for July 18, 2020 Units:  Both    English   Metric
Daily Weekly Monthly Yearly Custom
  High: Low: Average:
Temperature: 46.9 °F /  8.3 °C 40.8 °F /  4.9 °C 43.7 °F /  6.5 °C
Dew Point: 40.3 °F /  4.6 °C 37.2 °F /  2.9 °C 38.7 °F /  3.7 °C
Humidity: 87% 72% 83%
Wind Speed: 12.1mph /  19.5km/h - 3.2mph /  5.1km/h
Wind Gust: 17mph /  27.4km/h - -
Wind- - West
Pressure: 30.3 in /  1027.4 hPa 30.2 in /  1021.0 hPa -
Precipitation: 0 in /  0.0 mm    
Historical Graphs
 
 
Tabular Data for July 18, 2020
Time Temperature Dew Point Pressure Wind Wind Speed Wind Gust Humidity Rainfall Rate (Hourly) solar
00:01 43.9 °F /  6.6 °C 39.9 °F /  4.4 °C 30.2in /  1022.0hPa NW 4.9mph /  7.9km/h 10mph /  16.1km/h 86% 0in /  0.0mm 0 W/m2
00:06 43.9 °F /  6.6 °C 39.9 °F /  4.4 °C 30.2in /  1022.0hPa NW 2.9mph /  4.7km/h 16mph /  25.7km/h 86% 0in /  0.0mm 0 W/m2
00:11 43.9 °F /  6.6 °C 39.9 °F /  4.4 °C 30.2in /  1022.0hPa WSW 4mph /  6.4km/h 9mph /  14.5km/h 86% 0in /  0.0mm 0 W/m2
00:16 43.9 °F /  6.6 °C 39.9 °F /  4.4 °C 30.2in /  1022.0hPa West 11mph /  17.7km/h 15mph /  24.1km/h 86% 0in /  0.0mm 0 W/m2
00:21 43.9 °F /  6.6 °C 39.9 °F /  4.4 °C 30.2in /  1022.0hPa WNW 6.9mph /  11.1km/h 9mph /  14.5km/h 86% 0in /  0.0mm 0 W/m2
00:26 43.9 °F /  6.6 °C 39.9 °F /  4.4 °C 30.2in /  1022.4hPa NW 2.9mph /  4.7km/h 14mph /  22.5km/h 86% 0in /  0.0mm 0 W/m2
00:31 43.9 °F /  6.6 °C 39.9 °F /  4.4 °C 30.2in /  1022.4hPa WNW 2mph /  3.2km/h 8mph /  12.9km/h 86% 0in /  0.0mm 0 W/m2
00:36 43.9 °F /  6.6 °C 39.9 °F /  4.4 °C 30.2in /  1022.4hPa West 2.9mph /  4.7km/h 4mph /  6.4km/h 86% 0in /  0.0mm 0 W/m2
00:42 43.9 °F /  6.6 °C 39.9 °F /  4.4 °C 30.2in /  1022.7hPa West 2mph /  3.2km/h 8mph /  12.9km/h 86% 0in /  0.0mm 0 W/m2
00:47 44.1 °F /  6.7 °C 40.1 °F /  4.5 °C 30.2in /  1022.7hPa NNW 2mph /  3.2km/h 10mph /  16.1km/h 86% 0in /  0.0mm 0 W/m2
00:52 44.1 °F /  6.7 °C 40.1 °F /  4.5 °C 30.2in /  1022.7hPa West 6.9mph /  11.1km/h 7mph /  11.3km/h 86% 0in /  0.0mm 0 W/m2
00:57 44.1 °F /  6.7 °C 40.1 °F /  4.5 °C 30.2in /  1023.0hPa WSW 4.9mph /  7.9km/h 10mph /  16.1km/h 86% 0in /  0.0mm 0 W/m2
01:02 44.1 °F /  6.7 °C 40.1 °F /  4.5 °C 30.2in /  1023.0hPa WNW 2mph /  3.2km/h 8mph /  12.9km/h 86% 0in /  0.0mm 0 W/m2
01:07 43.9 °F /  6.6 °C 39.9 °F /  4.4 °C 30.2in /  1023.0hPa NW 2mph /  3.2km/h 6mph /  9.7km/h 86% 0in /  0.0mm 0 W/m2
01:12 43.9 °F /  6.6 °C 39.9 °F /  4.4 °C 30.2in /  1023.0hPa West 0.9mph /  1.4km/h 5mph /  8km/h 86% 0in /  0.0mm 0 W/m2
01:17 43.9 °F /  6.6 °C 40.3 °F /  4.6 °C 30.2in /  1023.0hPa WNW 2.9mph /  4.7km/h 8mph /  12.9km/h 87% 0in /  0.0mm 0 W/m2
01:22 43.9 °F /  6.6 °C 40.3 °F /  4.6 °C 30.2in /  1023.4hPa NW 2.9mph /  4.7km/h 12mph /  19.3km/h 87% 0in /  0.0mm 0 W/m2
01:27 43.9 °F /  6.6 °C 39.9 °F /  4.4 °C 30.2in /  1023.0hPa SW 2.9mph /  4.7km/h 8mph /  12.9km/h 86% 0in /  0.0mm 0 W/m2
01:32 43.9 °F /  6.6 °C 39.9 °F /  4.4 °C 30.2in /  1023.4hPa NW 0.9mph /  1.4km/h 9mph /  14.5km/h 86% 0in /  0.0mm 0 W/m2
01:37 43.9 °F /  6.6 °C 39.9 °F /  4.4 °C 30.2in /  1023.4hPa WNW 4.9mph /  7.9km/h 9mph /  14.5km/h 86% 0in /  0.0mm 0 W/m2
01:42 43.9 °F /  6.6 °C 39.9 °F /  4.4 °C 30.2in /  1023.4hPa NW 2mph /  3.2km/h 9mph /  14.5km/h 86% 0in /  0.0mm 0 W/m2
01:47 43.7 °F /  6.5 °C 39.7 °F /  4.3 °C 30.2in /  1023.4hPa WNW 6.9mph /  11.1km/h 9mph /  14.5km/h 86% 0in /  0.0mm 0 W/m2
01:52 43.7 °F /  6.5 °C 39.7 °F /  4.3 °C 30.2in /  1023.4hPa North 8.9mph /  14.3km/h 10mph /  16.1km/h 86% 0in /  0.0mm 0 W/m2
01:57 43.7 °F /  6.5 °C 39.7 °F /  4.3 °C 30.2in /  1023.4hPa West 2mph /  3.2km/h 7mph /  11.3km/h 86% 0in /  0.0mm 0 W/m2
02:02 43.5 °F /  6.4 °C 39.6 °F /  4.2 °C 30.2in /  1023.4hPa NW 4.9mph /  7.9km/h 10mph /  16.1km/h 86% 0in /  0.0mm 0 W/m2
02:07 43.5 °F /  6.4 °C 39.6 °F /  4.2 °C 30.2in /  1023.4hPa WNW 6.9mph /  11.1km/h 12mph /  19.3km/h 86% 0in /  0.0mm 0 W/m2
02:12 43.5 °F /  6.4 °C 39.4 °F /  4.1 °C 30.2in /  1023.4hPa WSW 4mph /  6.4km/h 10mph /  16.1km/h 85% 0in /  0.0mm 0 W/m2
02:17 43.5 °F /  6.4 °C 39.4 °F /  4.1 °C 30.2in /  1023.4hPa WNW 2.9mph /  4.7km/h 7mph /  11.3km/h 85% 0in /  0.0mm 0 W/m2
02:22 43.5 °F /  6.4 °C 39.4 °F /  4.1 °C 30.2in /  1023.4hPa WNW 8.1mph /  13km/h 10mph /  16.1km/h 85% 0in /  0.0mm 0 W/m2
02:27 43.5 °F /  6.4 °C 39.4 °F /  4.1 °C 30.2in /  1023.4hPa NW 6.9mph /  11.1km/h 15mph /  24.1km/h 85% 0in /  0.0mm 0 W/m2
02:33 43.5 °F /  6.4 °C 39.4 °F /  4.1 °C 30.2in /  1023.4hPa West 12.1mph /  19.5km/h 12mph /  19.3km/h 85% 0in /  0.0mm 0 W/m2
02:38 43.5 °F /  6.4 °C 39.4 °F /  4.1 °C 30.2in /  1023.7hPa West 11mph /  17.7km/h 15mph /  24.1km/h 85% 0in /  0.0mm 0 W/m2
02:43 43.3 °F /  6.3 °C 39.2 °F /  4 °C 30.2in /  1023.7hPa West 2.9mph /  4.7km/h 7mph /  11.3km/h 85% 0in /  0.0mm 0 W/m2
02:48 43.3 °F /  6.3 °C 39.2 °F /  4 °C 30.2in /  1023.7hPa WNW 2mph /  3.2km/h 16mph /  25.7km/h 85% 0in /  0.0mm 0 W/m2
02:53 43.3 °F /  6.3 °C 39.2 °F /  4 °C 30.2in /  1023.7hPa West 8.9mph /  14.3km/h 11mph /  17.7km/h 85% 0in /  0.0mm 0 W/m2
02:58 43.3 °F /  6.3 °C 39.2 °F /  4 °C 30.2in /  1023.7hPa WNW 4.9mph /  7.9km/h 14mph /  22.5km/h 85% 0in /  0.0mm 0 W/m2
03:03 43.2 °F /  6.2 °C 39 °F /  3.9 °C 30.2in /  1024.0hPa WSW 4.9mph /  7.9km/h 17mph /  27.4km/h 85% 0in /  0.0mm 0 W/m2
03:08 43.2 °F /  6.2 °C 39 °F /  3.9 °C 30.2in /  1024.0hPa NW 6.9mph /  11.1km/h 11mph /  17.7km/h 85% 0in /  0.0mm 0 W/m2
03:13 43 °F /  6.1 °C 38.8 °F /  3.8 °C 30.2in /  1024.0hPa NNW 8.1mph /  13km/h 17mph /  27.4km/h 85% 0in /  0.0mm 0 W/m2
03:18 43 °F /  6.1 °C 38.8 °F /  3.8 °C 30.2in /  1024.0hPa WNW 2mph /  3.2km/h 11mph /  17.7km/h 85% 0in /  0.0mm 0 W/m2
03:23 42.8 °F /  6 °C 38.7 °F /  3.7 °C 30.2in /  1024.0hPa WNW 6mph /  9.7km/h 13mph /  20.9km/h 85% 0in /  0.0mm 0 W/m2
03:28 42.6 °F /  5.9 °C 38.5 °F /  3.6 °C 30.2in /  1024.0hPa NW 8.1mph /  13km/h 10mph /  16.1km/h 85% 0in /  0.0mm 0 W/m2
03:33 42.6 °F /  5.9 °C 38.5 °F /  3.6 °C 30.2in /  1024.0hPa WSW 4mph /  6.4km/h 10mph /  16.1km/h 85% 0in /  0.0mm 0 W/m2
03:38 42.4 °F /  5.8 °C 38.5 °F /  3.6 °C 30.2in /  1024.0hPa West 2mph /  3.2km/h 11mph /  17.7km/h 86% 0in /  0.0mm 0 W/m2
03:43 42.4 °F /  5.8 °C 38.5 °F /  3.6 °C 30.2in /  1024.0hPa NW 8.1mph /  13km/h 13mph /  20.9km/h 86% 0in /  0.0mm 0 W/m2
03:48 42.3 °F /  5.7 °C 38.3 °F /  3.5 °C 30.2in /  1024.0hPa WSW 2.9mph /  4.7km/h 16mph /  25.7km/h 86% 0in /  0.0mm 0 W/m2
03:53 42.3 °F /  5.7 °C 38.3 °F /  3.5 °C 30.2in /  1024.0hPa West 2.9mph /  4.7km/h 9mph /  14.5km/h 86% 0in /  0.0mm 0 W/m2
03:58 42.1 °F /  5.6 °C 38.1 °F /  3.4 °C 30.2in /  1024.0hPa NW 4mph /  6.4km/h 16mph /  25.7km/h 86% 0in /  0.0mm 0 W/m2
04:03 42.1 °F /  5.6 °C 38.1 °F /  3.4 °C 30.2in /  1024.0hPa West 2mph /  3.2km/h 6mph /  9.7km/h 86% 0in /  0.0mm 0 W/m2
04:08 42.1 °F /  5.6 °C 38.1 °F /  3.4 °C 30.3in /  1024.4hPa West 2.9mph /  4.7km/h 14mph /  22.5km/h 86% 0in /  0.0mm 0 W/m2
04:13 42.1 °F /  5.6 °C 38.1 °F /  3.4 °C 30.3in /  1024.4hPa NW 8.1mph /  13km/h 8mph /  12.9km/h 86% 0in /  0.0mm 0 W/m2
04:18 41.9 °F /  5.5 °C 37.9 °F /  3.3 °C 30.3in /  1024.4hPa West 2mph /  3.2km/h 13mph /  20.9km/h 86% 0in /  0.0mm 0 W/m2
04:23 41.9 °F /  5.5 °C 37.9 °F /  3.3 °C 30.3in /  1024.4hPa WNW 2mph /  3.2km/h 3mph /  4.8km/h 86% 0in /  0.0mm 0 W/m2
04:28 41.7 °F /  5.4 °C 37.8 °F /  3.2 °C 30.3in /  1024.4hPa WNW 2.9mph /  4.7km/h 10mph /  16.1km/h 86% 0in /  0.0mm 0 W/m2
04:33 41.5 °F /  5.3 °C 37.6 °F /  3.1 °C 30.3in /  1024.4hPa WNW 4mph /  6.4km/h 4mph /  6.4km/h 86% 0in /  0.0mm 0 W/m2
04:38 41.5 °F /  5.3 °C 37.9 °F /  3.3 °C 30.3in /  1024.4hPa WSW 2mph /  3.2km/h 9mph /  14.5km/h 87% 0in /  0.0mm 0 W/m2
04:43 41.5 °F /  5.3 °C 37.9 °F /  3.3 °C 30.3in /  1024.7hPa WNW 2.9mph /  4.7km/h 6mph /  9.7km/h 87% 0in /  0.0mm 0 W/m2
04:48 41.4 °F /  5.2 °C 37.8 °F /  3.2 °C 30.3in /  1024.7hPa WNW 4mph /  6.4km/h 9mph /  14.5km/h 87% 0in /  0.0mm 0 W/m2
04:53 41.4 °F /  5.2 °C 37.8 °F /  3.2 °C 30.3in /  1024.7hPa West 0.9mph /  1.4km/h 4mph /  6.4km/h 87% 0in /  0.0mm 0 W/m2
04:58 41.4 °F /  5.2 °C 37.8 °F /  3.2 °C 30.3in /  1024.7hPa West 2mph /  3.2km/h 10mph /  16.1km/h 87% 0in /  0.0mm 0 W/m2
05:03 41.4 °F /  5.2 °C 37.8 °F /  3.2 °C 30.3in /  1025.1hPa NNW 11mph /  17.7km/h 11mph /  17.7km/h 87% 0in /  0.0mm 0 W/m2
05:08 41.4 °F /  5.2 °C 37.8 °F /  3.2 °C 30.3in /  1024.7hPa WSW 2.9mph /  4.7km/h 3mph /  4.8km/h 87% 0in /  0.0mm 0 W/m2
05:13 41.4 °F /  5.2 °C 37.8 °F /  3.2 °C 30.3in /  1025.1hPa West 8.1mph /  13km/h 11mph /  17.7km/h 87% 0in /  0.0mm 0 W/m2
05:18 41.4 °F /  5.2 °C 37.8 °F /  3.2 °C 30.3in /  1025.1hPa NW 4mph /  6.4km/h 4mph /  6.4km/h 87% 0in /  0.0mm 0 W/m2
05:23 41.4 °F /  5.2 °C 37.8 °F /  3.2 °C 30.3in /  1025.1hPa West 4mph /  6.4km/h 8mph /  12.9km/h 87% 0in /  0.0mm 0 W/m2
05:28 41.4 °F /  5.2 °C 37.8 °F /  3.2 °C 30.3in /  1025.1hPa NNW 4mph /  6.4km/h 5mph /  8km/h 87% 0in /  0.0mm 0 W/m2
05:33 41.2 °F /  5.1 °C 37.6 °F /  3.1 °C 30.3in /  1025.1hPa WSW 2mph /  3.2km/h 8mph /  12.9km/h 87% 0in /  0.0mm 0 W/m2
05:38 41.2 °F /  5.1 °C 37.6 °F /  3.1 °C 30.3in /  1025.1hPa West 6.9mph /  11.1km/h 12mph /  19.3km/h 87% 0in /  0.0mm 0 W/m2
05:43 41.2 °F /  5.1 °C 37.6 °F /  3.1 °C 30.3in /  1025.1hPa WNW 4mph /  6.4km/h 8mph /  12.9km/h 87% 0in /  0.0mm 0 W/m2
05:48 41.2 °F /  5.1 °C 37.6 °F /  3.1 °C 30.3in /  1025.1hPa SW 4.9mph /  7.9km/h 7mph /  11.3km/h 87% 0in /  0.0mm 0 W/m2
05:53 41.2 °F /  5.1 °C 37.6 °F /  3.1 °C 30.3in /  1025.1hPa NW 4mph /  6.4km/h 11mph /  17.7km/h 87% 0in /  0.0mm 0 W/m2
05:58 41.2 °F /  5.1 °C 37.6 °F /  3.1 °C 30.3in /  1025.1hPa SW 4.9mph /  7.9km/h 5mph /  8km/h 87% 0in /  0.0mm 0 W/m2
06:03 41.2 °F /  5.1 °C 37.6 °F /  3.1 °C 30.3in /  1025.1hPa SW 4mph /  6.4km/h 8mph /  12.9km/h 87% 0in /  0.0mm 0 W/m2
06:08 41.2 °F /  5.1 °C 37.6 °F /  3.1 °C 30.3in /  1025.4hPa WNW 2mph /  3.2km/h 7mph /  11.3km/h 87% 0in /  0.0mm 0 W/m2
06:13 41.2 °F /  5.1 °C 37.6 °F /  3.1 °C 30.3in /  1025.4hPa West 6mph /  9.7km/h 6mph /  9.7km/h 87% 0in /  0.0mm 0 W/m2
06:18 41.2 °F /  5.1 °C 37.6 °F /  3.1 °C 30.3in /  1025.4hPa West 2.9mph /  4.7km/h 4mph /  6.4km/h 87% 0in /  0.0mm 0 W/m2
06:23 41.2 °F /  5.1 °C 37.6 °F /  3.1 °C 30.3in /  1025.4hPa WNW 2mph /  3.2km/h 7mph /  11.3km/h 87% 0in /  0.0mm 0 W/m2
06:28 41.2 °F /  5.1 °C 37.6 °F /  3.1 °C 30.3in /  1025.4hPa West 2mph /  3.2km/h 4mph /  6.4km/h 87% 0in /  0.0mm 0 W/m2
06:33 41.2 °F /  5.1 °C 37.6 °F /  3.1 °C 30.3in /  1025.4hPa NW 4mph /  6.4km/h 7mph /  11.3km/h 87% 0in /  0.0mm 0 W/m2
06:38 41.2 °F /  5.1 °C 37.6 °F /  3.1 °C 30.3in /  1025.4hPa Calm   8mph /  12.9km/h 87% 0in /  0.0mm 0 W/m2
06:43 41.2 °F /  5.1 °C 37.6 °F /  3.1 °C 30.3in /  1025.4hPa West 2.9mph /  4.7km/h 7mph /  11.3km/h 87% 0in /  0.0mm 0 W/m2
06:48 41 °F /  5 °C 37.4 °F /  3 °C 30.3in /  1025.4hPa WNW 4mph /  6.4km/h 10mph /  16.1km/h 87% 0in /  0.0mm 0 W/m2
06:53 41 °F /  5 °C 37.4 °F /  3 °C 30.3in /  1025.7hPa West 2mph /  3.2km/h 6mph /  9.7km/h 87% 0in /  0.0mm 0 W/m2
06:58 41 °F /  5 °C 37.4 °F /  3 °C 30.3in /  1025.4hPa West 2.9mph /  4.7km/h 10mph /  16.1km/h 87% 0in /  0.0mm 0 W/m2
07:03 41 °F /  5 °C 37.4 °F /  3 °C 30.3in /  1025.7hPa WSW 4mph /  6.4km/h 9mph /  14.5km/h 87% 0in /  0.0mm 0 W/m2
07:08 41 °F /  5 °C 37.4 °F /  3 °C 30.3in /  1025.7hPa NW 2.9mph /  4.7km/h 9mph /  14.5km/h 87% 0in /  0.0mm 0 W/m2
07:13 41 °F /  5 °C 37.4 °F /  3 °C 30.3in /  1025.4hPa WSW 2.9mph /  4.7km/h 6mph /  9.7km/h 87% 0in /  0.0mm 0 W/m2
07:18 41 °F /  5 °C 37.4 °F /  3 °C 30.3in /  1025.7hPa WNW 4mph /  6.4km/h 8mph /  12.9km/h 87% 0in /  0.0mm 0 W/m2
07:23 41 °F /  5 °C 37.4 °F /  3 °C 30.3in /  1025.7hPa NW 2mph /  3.2km/h 4mph /  6.4km/h 87% 0in /  0.0mm 0 W/m2
07:28 41 °F /  5 °C 37.4 °F /  3 °C 30.3in /  1025.7hPa WSW 0.9mph /  1.4km/h 3mph /  4.8km/h 87% 0in /  0.0mm 0 W/m2
07:33 41 °F /  5 °C 37.4 °F /  3 °C 30.3in /  1025.7hPa West 0.9mph /  1.4km/h 8mph /  12.9km/h 87% 0in /  0.0mm 0 W/m2
07:38 41 °F /  5 °C 37.4 °F /  3 °C 30.3in /  1025.7hPa NNW 4.9mph /  7.9km/h 7mph /  11.3km/h 87% 0in /  0.0mm 0 W/m2
07:43 41 °F /  5 °C 37.4 °F /  3 °C 30.3in /  1025.7hPa WNW 2mph /  3.2km/h 13mph /  20.9km/h 87% 0in /  0.0mm 0 W/m2
07:48 41 °F /  5 °C 37.4 °F /  3 °C 30.3in /  1025.7hPa North 0.9mph /  1.4km/h 7mph /  11.3km/h 87% 0in /  0.0mm 0 W/m2
07:53 41 °F /  5 °C 37.4 °F /  3 °C 30.3in /  1025.7hPa NNW 0.9mph /  1.4km/h 13mph /  20.9km/h 87% 0in /  0.0mm 0 W/m2
07:58 40.8 °F /  4.9 °C 37.2 °F /  2.9 °C 30.3in /  1026.1hPa West 0.9mph /  1.4km/h 4mph /  6.4km/h 87% 0in /  0.0mm 5 W/m2
08:03 40.8 °F /  4.9 °C 37.2 °F /  2.9 °C 30.3in /  1026.1hPa WSW 0.9mph /  1.4km/h 6mph /  9.7km/h 87% 0in /  0.0mm 5 W/m2
08:08 40.8 °F /  4.9 °C 37.2 °F /  2.9 °C 30.3in /  1026.1hPa WSW 2.9mph /  4.7km/h 6mph /  9.7km/h 87% 0in /  0.0mm 9 W/m2
08:13 40.8 °F /  4.9 °C 37.2 °F /  2.9 °C 30.3in /  1026.4hPa WNW 0.9mph /  1.4km/h 2mph /  3.2km/h 87% 0in /  0.0mm 11 W/m2
08:19 41 °F /  5 °C 37.4 °F /  3 °C 30.3in /  1026.4hPa West 2mph /  3.2km/h 4mph /  6.4km/h 87% 0in /  0.0mm 11 W/m2
08:24 41 °F /  5 °C 37.4 °F /  3 °C 30.3in /  1026.4hPa West 6mph /  9.7km/h 13mph /  20.9km/h 87% 0in /  0.0mm 12 W/m2
08:29 41 °F /  5 °C 37.4 °F /  3 °C 30.3in /  1026.4hPa WSW 6.9mph /  11.1km/h 7mph /  11.3km/h 87% 0in /  0.0mm 21 W/m2
08:34 41 °F /  5 °C 37.4 °F /  3 °C 30.3in /  1026.8hPa West 2mph /  3.2km/h 9mph /  14.5km/h 87% 0in /  0.0mm 23 W/m2
08:39 41 °F /  5 °C 37.4 °F /  3 °C 30.3in /  1026.8hPa NNW 0.9mph /  1.4km/h 5mph /  8km/h 87% 0in /  0.0mm 28 W/m2
08:44 41 °F /  5 °C 37.2 °F /  2.9 °C 30.3in /  1026.8hPa NW 0.9mph /  1.4km/h 7mph /  11.3km/h 86% 0in /  0.0mm 35 W/m2
08:49 41 °F /  5 °C 37.2 °F /  2.9 °C 30.3in /  1026.8hPa WSW 0.9mph /  1.4km/h 8mph /  12.9km/h 86% 0in /  0.0mm 25 W/m2
08:54 41 °F /  5 °C 37.4 °F /  3 °C 30.3in /  1026.8hPa WSW 0.9mph /  1.4km/h 4mph /  6.4km/h 87% 0in /  0.0mm 30 W/m2
08:59 41 °F /  5 °C 37.2 °F /  2.9 °C 30.3in /  1026.8hPa NW 2mph /  3.2km/h 9mph /  14.5km/h 86% 0in /  0.0mm 39 W/m2
09:04 41 °F /  5 °C 37.4 °F /  3 °C 30.3in /  1026.8hPa NW 2mph /  3.2km/h 5mph /  8km/h 87% 0in /  0.0mm 63 W/m2
09:09 41 °F /  5 °C 37.4 °F /  3 °C 30.3in /  1026.8hPa NW 2mph /  3.2km/h 7mph /  11.3km/h 87% 0in /  0.0mm 62 W/m2
09:14 41.2 °F /  5.1 °C 37.6 °F /  3.1 °C 30.3in /  1027.1hPa WNW 0.9mph /  1.4km/h 2mph /  3.2km/h 87% 0in /  0.0mm 67 W/m2
09:19 41.2 °F /  5.1 °C 37.4 °F /  3 °C 30.3in /  1027.1hPa West 2.9mph /  4.7km/h 6mph /  9.7km/h 86% 0in /  0.0mm 70 W/m2
09:24 41.2 °F /  5.1 °C 37.6 °F /  3.1 °C 30.3in /  1026.8hPa WNW 4mph /  6.4km/h 4mph /  6.4km/h 87% 0in /  0.0mm 88 W/m2
09:29 41.4 °F /  5.2 °C 37.6 °F /  3.1 °C 30.3in /  1027.1hPa West 8.1mph /  13km/h 8mph /  12.9km/h 86% 0in /  0.0mm 58 W/m2
09:34 41.4 °F /  5.2 °C 37.6 °F /  3.1 °C 30.3in /  1027.1hPa WNW 2mph /  3.2km/h 9mph /  14.5km/h 86% 0in /  0.0mm 54 W/m2
09:39 41.4 °F /  5.2 °C 37.6 °F /  3.1 °C 30.3in /  1027.1hPa WNW 4mph /  6.4km/h 4mph /  6.4km/h 86% 0in /  0.0mm 72 W/m2
09:44 41.4 °F /  5.2 °C 37.6 °F /  3.1 °C 30.3in /  1027.1hPa WNW 12.1mph /  19.5km/h 12mph /  19.3km/h 86% 0in /  0.0mm 62 W/m2
09:49 41.4 °F /  5.2 °C 37.6 °F /  3.1 °C 30.3in /  1027.1hPa Calm   6mph /  9.7km/h 86% 0in /  0.0mm 58 W/m2
09:54 41.4 °F /  5.2 °C 37.6 °F /  3.1 °C 30.3in /  1027.1hPa ESE 12mph /  19.3km/h 12mph /  19.3km/h 86% 0in /  0.0mm 63 W/m2
09:59 41.4 °F /  5.2 °C 37.6 °F /  3.1 °C 30.3in /  1027.1hPa WNW 4mph /  6.4km/h 7mph /  11.3km/h 86% 0in /  0.0mm 58 W/m2
10:04 41.4 °F /  5.2 °C 37.6 °F /  3.1 °C 30.3in /  1027.1hPa WNW 4.9mph /  7.9km/h 5mph /  8km/h 86% 0in /  0.0mm 58 W/m2
10:09 41.5 °F /  5.3 °C 37.6 °F /  3.1 °C 30.3in /  1027.1hPa WNW 4mph /  6.4km/h 7mph /  11.3km/h 86% 0in /  0.0mm 77 W/m2
10:14 41.5 °F /  5.3 °C 37.6 °F /  3.1 °C 30.3in /  1027.1hPa WSW 2mph /  3.2km/h 4mph /  6.4km/h 86% 0in /  0.0mm 127 W/m2
10:19 41.5 °F /  5.3 °C 37.6 °F /  3.1 °C 30.3in /  1027.1hPa West 0.9mph /  1.4km/h 8mph /  12.9km/h 86% 0in /  0.0mm 130 W/m2
10:24 41.7 °F /  5.4 °C 37.8 °F /  3.2 °C 30.3in /  1027.1hPa SW 8.9mph /  14.3km/h 9mph /  14.5km/h 86% 0in /  0.0mm 109 W/m2
10:29 41.7 °F /  5.4 °C 37.8 °F /  3.2 °C 30.3in /  1027.4hPa WSW 0.9mph /  1.4km/h 10mph /  16.1km/h 86% 0in /  0.0mm 104 W/m2
10:34 41.7 °F /  5.4 °C 37.6 °F /  3.1 °C 30.3in /  1027.4hPa West 4mph /  6.4km/h 10mph /  16.1km/h 85% 0in /  0.0mm 113 W/m2
10:39 41.7 °F /  5.4 °C 37.8 °F /  3.2 °C 30.3in /  1027.4hPa WNW 2mph /  3.2km/h 7mph /  11.3km/h 86% 0in /  0.0mm 156 W/m2
10:44 42.1 °F /  5.6 °C 38.1 °F /  3.4 °C 30.3in /  1027.1hPa ESE 2mph /  3.2km/h 10mph /  16.1km/h 86% 0in /  0.0mm 204 W/m2
10:49 42.3 °F /  5.7 °C 38.3 °F /  3.5 °C 30.3in /  1027.4hPa SE 2mph /  3.2km/h 10mph /  16.1km/h 86% 0in /  0.0mm 148 W/m2
10:54 42.3 °F /  5.7 °C 38.1 °F /  3.4 °C 30.3in /  1027.4hPa WNW 8.1mph /  13km/h 9mph /  14.5km/h 85% 0in /  0.0mm 206 W/m2
10:59 42.4 °F /  5.8 °C 38.3 °F /  3.5 °C 30.3in /  1027.1hPa West 2mph /  3.2km/h 5mph /  8km/h 85% 0in /  0.0mm 276 W/m2
11:04 42.6 °F /  5.9 °C 38.5 °F /  3.6 °C 30.3in /  1027.1hPa West 0.9mph /  1.4km/h 4mph /  6.4km/h 85% 0in /  0.0mm 188 W/m2
11:09 43 °F /  6.1 °C 38.5 °F /  3.6 °C 30.3in /  1027.1hPa West 2.9mph /  4.7km/h 7mph /  11.3km/h 84% 0in /  0.0mm 197 W/m2
11:15 43.2 °F /  6.2 °C 38.3 °F /  3.5 °C 30.3in /  1027.1hPa NNW 2mph /  3.2km/h 7mph /  11.3km/h 83% 0in /  0.0mm 181 W/m2
11:20 43.2 °F /  6.2 °C 38.3 °F /  3.5 °C 30.3in /  1027.1hPa WNW 2mph /  3.2km/h 8mph /  12.9km/h 83% 0in /  0.0mm 146 W/m2
11:25 43.2 °F /  6.2 °C 38.3 °F /  3.5 °C 30.3in /  1027.1hPa NNW 2mph /  3.2km/h 9mph /  14.5km/h 83% 0in /  0.0mm 162 W/m2
11:30 43.2 °F /  6.2 °C 38.3 °F /  3.5 °C 30.3in /  1027.1hPa North 0.9mph /  1.4km/h 7mph /  11.3km/h 83% 0in /  0.0mm 239 W/m2
11:35 43.3 °F /  6.3 °C 38.5 °F /  3.6 °C 30.3in /  1027.1hPa NNW 2.9mph /  4.7km/h 7mph /  11.3km/h 83% 0in /  0.0mm 262 W/m2
11:40 43.5 °F /  6.4 °C 38.7 °F /  3.7 °C 30.3in /  1027.1hPa NNW 2mph /  3.2km/h 4mph /  6.4km/h 83% 0in /  0.0mm 216 W/m2
11:45 43.9 °F /  6.6 °C 38.7 °F /  3.7 °C 30.3in /  1027.4hPa NE 4mph /  6.4km/h 7mph /  11.3km/h 82% 0in /  0.0mm 135 W/m2
11:50 44.1 °F /  6.7 °C 38.7 °F /  3.7 °C 30.3in /  1027.1hPa WNW 2.9mph /  4.7km/h 6mph /  9.7km/h 81% 0in /  0.0mm 364 W/m2
11:55 44.2 °F /  6.8 °C 38.8 °F /  3.8 °C 30.3in /  1027.1hPa ENE 4mph /  6.4km/h 8mph /  12.9km/h 81% 0in /  0.0mm 211 W/m2
12:00 44.4 °F /  6.9 °C 39 °F /  3.9 °C 30.3in /  1027.1hPa North 2mph /  3.2km/h 4mph /  6.4km/h 81% 0in /  0.0mm 218 W/m2
12:05 44.8 °F /  7.1 °C 39 °F /  3.9 °C 30.3in /  1026.8hPa NW 4.9mph /  7.9km/h 5mph /  8km/h 80% 0in /  0.0mm 279 W/m2
12:10 44.8 °F /  7.1 °C 38.7 °F /  3.7 °C 30.3in /  1026.8hPa West 6.9mph /  11.1km/h 7mph /  11.3km/h 79% 0in /  0.0mm 120 W/m2
12:15 44.8 °F /  7.1 °C 39 °F /  3.9 °C 30.3in /  1026.8hPa NW 4.9mph /  7.9km/h 9mph /  14.5km/h 80% 0in /  0.0mm 120 W/m2
12:20 44.8 °F /  7.1 °C 38.7 °F /  3.7 °C 30.3in /  1026.8hPa NW 4.9mph /  7.9km/h 13mph /  20.9km/h 79% 0in /  0.0mm 195 W/m2
12:25 44.4 °F /  6.9 °C 38.3 °F /  3.5 °C 30.3in /  1026.8hPa WNW 4mph /  6.4km/h 12mph /  19.3km/h 79% 0in /  0.0mm 178 W/m2
12:30 44.4 °F /  6.9 °C 38.3 °F /  3.5 °C 30.3in /  1026.8hPa NW 6mph /  9.7km/h 10mph /  16.1km/h 79% 0in /  0.0mm 169 W/m2
12:35 44.4 °F /  6.9 °C 38.3 °F /  3.5 °C 30.3in /  1026.8hPa West 2.9mph /  4.7km/h 11mph /  17.7km/h 79% 0in /  0.0mm 230 W/m2
12:40 44.6 °F /  7 °C 38.5 °F /  3.6 °C 30.3in /  1026.8hPa SW 2mph /  3.2km/h 6mph /  9.7km/h 79% 0in /  0.0mm 216 W/m2
12:45 45 °F /  7.2 °C 38.5 °F /  3.6 °C 30.3in /  1026.8hPa WNW 6.9mph /  11.1km/h 11mph /  17.7km/h 78% 0in /  0.0mm 213 W/m2
12:50 45.1 °F /  7.3 °C 39 °F /  3.9 °C 30.3in /  1026.4hPa NW 2.9mph /  4.7km/h 6mph /  9.7km/h 79% 0in /  0.0mm 216 W/m2
12:55 45.3 °F /  7.4 °C 38.8 °F /  3.8 °C 30.3in /  1026.4hPa West 4mph /  6.4km/h 11mph /  17.7km/h 78% 0in /  0.0mm 190 W/m2
13:00 45.3 °F /  7.4 °C 38.5 °F /  3.6 °C 30.3in /  1026.4hPa WNW 2.9mph /  4.7km/h 8mph /  12.9km/h 77% 0in /  0.0mm 91 W/m2
13:05 45.3 °F /  7.4 °C 38.5 °F /  3.6 °C 30.3in /  1026.4hPa WNW 2.9mph /  4.7km/h 8mph /  12.9km/h 77% 0in /  0.0mm 171 W/m2
13:10 45.3 °F /  7.4 °C 38.8 °F /  3.8 °C 30.3in /  1026.4hPa West 0.9mph /  1.4km/h 8mph /  12.9km/h 78% 0in /  0.0mm 195 W/m2
13:15 45.3 °F /  7.4 °C 38.8 °F /  3.8 °C 30.3in /  1026.4hPa West 6.9mph /  11.1km/h 10mph /  16.1km/h 78% 0in /  0.0mm 158 W/m2
13:20 45.3 °F /  7.4 °C 38.5 °F /  3.6 °C 30.3in /  1026.4hPa NW 4.9mph /  7.9km/h 12mph /  19.3km/h 77% 0in /  0.0mm 139 W/m2
13:25 45.3 °F /  7.4 °C 38.8 °F /  3.8 °C 30.3in /  1026.4hPa NNW 2.9mph /  4.7km/h 6mph /  9.7km/h 78% 0in /  0.0mm 134 W/m2
13:30 45.3 °F /  7.4 °C 38.8 °F /  3.8 °C 30.3in /  1026.4hPa SE 0.9mph /  1.4km/h 9mph /  14.5km/h 78% 0in /  0.0mm 176 W/m2
13:35 45.7 °F /  7.6 °C 39.2 °F /  4 °C 30.3in /  1026.1hPa WNW 2.9mph /  4.7km/h 4mph /  6.4km/h 78% 0in /  0.0mm 190 W/m2
13:40 45.9 °F /  7.7 °C 39 °F /  3.9 °C 30.3in /  1026.1hPa South 0.9mph /  1.4km/h 9mph /  14.5km/h 77% 0in /  0.0mm 179 W/m2
13:45 46 °F /  7.8 °C 39.2 °F /  4 °C 30.3in /  1026.1hPa West 6.9mph /  11.1km/h 7mph /  11.3km/h 77% 0in /  0.0mm 264 W/m2
13:50 46.2 °F /  7.9 °C 38.5 °F /  3.6 °C 30.3in /  1025.7hPa West 10.1mph /  16.3km/h 10mph /  16.1km/h 74% 0in /  0.0mm 167 W/m2
13:55 46.2 °F /  7.9 °C 38.1 °F /  3.4 °C 30.3in /  1025.7hPa West 2mph /  3.2km/h 8mph /  12.9km/h 73% 0in /  0.0mm 236 W/m2
14:00 46.4 °F /  8 °C 37.9 °F /  3.3 °C 30.3in /  1025.7hPa WNW 4mph /  6.4km/h 5mph /  8km/h 72% 0in /  0.0mm 151 W/m2
14:05 46.4 °F /  8 °C 37.9 °F /  3.3 °C 30.3in /  1025.7hPa NNE 0.9mph /  1.4km/h 4mph /  6.4km/h 72% 0in /  0.0mm 179 W/m2
14:11 46.6 °F /  8.1 °C 38.1 °F /  3.4 °C 30.3in /  1025.7hPa NNE 2.9mph /  4.7km/h 8mph /  12.9km/h 72% 0in /  0.0mm 227 W/m2
14:16 46.6 °F /  8.1 °C 38.5 °F /  3.6 °C 30.3in /  1025.7hPa NW 4.9mph /  7.9km/h 7mph /  11.3km/h 73% 0in /  0.0mm 171 W/m2
14:21 46.8 °F /  8.2 °C 38.3 °F /  3.5 °C 30.3in /  1025.4hPa NW 10.1mph /  16.3km/h 11mph /  17.7km/h 72% 0in /  0.0mm 148 W/m2
14:26 46.8 °F /  8.2 °C 38.5 °F /  3.6 °C 30.3in /  1025.4hPa NNE 0.9mph /  1.4km/h 8mph /  12.9km/h 73% 0in /  0.0mm 116 W/m2
14:31 46.8 °F /  8.2 °C 38.3 °F /  3.5 °C 30.3in /  1025.4hPa WNW 2mph /  3.2km/h 12mph /  19.3km/h 72% 0in /  0.0mm 146 W/m2
14:36 46.6 °F /  8.1 °C 38.5 °F /  3.6 °C 30.3in /  1025.4hPa NW 2mph /  3.2km/h 7mph /  11.3km/h 73% 0in /  0.0mm 135 W/m2
14:41 46.6 °F /  8.1 °C 38.5 °F /  3.6 °C 30.3in /  1025.4hPa WSW 0.9mph /  1.4km/h 11mph /  17.7km/h 73% 0in /  0.0mm 104 W/m2
14:46 46.4 °F /  8 °C 38.3 °F /  3.5 °C 30.3in /  1025.4hPa SW 0.9mph /  1.4km/h 10mph /  16.1km/h 73% 0in /  0.0mm 44 W/m2
14:51 46.4 °F /  8 °C 38.3 °F /  3.5 °C 30.3in /  1025.4hPa Calm   4mph /  6.4km/h 73% 0in /  0.0mm 83 W/m2
14:56 46.2 °F /  7.9 °C 38.5 °F /  3.6 °C 30.3in /  1025.4hPa SW 0.9mph /  1.4km/h 9mph /  14.5km/h 74% 0in /  0.0mm 60 W/m2
15:01 46.2 °F /  7.9 °C 38.5 °F /  3.6 °C 30.3in /  1025.1hPa WSW 4mph /  6.4km/h 6mph /  9.7km/h 74% 0in /  0.0mm 84 W/m2
15:06 46.2 °F /  7.9 °C 38.5 °F /  3.6 °C 30.3in /  1025.1hPa South 6.9mph /  11.1km/h 8mph /  12.9km/h 74% 0in /  0.0mm 130 W/m2
15:11 46.4 °F /  8 °C 38.5 °F /  3.6 °C 30.3in /  1025.1hPa WNW 8.1mph /  13km/h 8mph /  12.9km/h 74% 0in /  0.0mm 91 W/m2
15:16 46.6 °F /  8.1 °C 38.7 °F /  3.7 °C 30.3in /  1025.1hPa South 2mph /  3.2km/h 4mph /  6.4km/h 74% 0in /  0.0mm 70 W/m2
15:21 46.6 °F /  8.1 °C 38.5 °F /  3.6 °C 30.3in /  1025.1hPa NW 2mph /  3.2km/h 6mph /  9.7km/h 73% 0in /  0.0mm 70 W/m2
15:26 46.6 °F /  8.1 °C 38.7 °F /  3.7 °C 30.3in /  1025.1hPa West 2mph /  3.2km/h 8mph /  12.9km/h 74% 0in /  0.0mm 49 W/m2
15:31 46.8 °F /  8.2 °C 38.8 °F /  3.8 °C 30.3in /  1025.1hPa South 0.9mph /  1.4km/h 6mph /  9.7km/h 74% 0in /  0.0mm 95 W/m2
15:36 46.8 °F /  8.2 °C 38.8 °F /  3.8 °C 30.3in /  1025.1hPa NNW 0.9mph /  1.4km/h 6mph /  9.7km/h 74% 0in /  0.0mm 65 W/m2
15:41 46.8 °F /  8.2 °C 38.8 °F /  3.8 °C 30.3in /  1025.1hPa SSW 4.9mph /  7.9km/h 10mph /  16.1km/h 74% 0in /  0.0mm 70 W/m2
15:46 46.8 °F /  8.2 °C 38.5 °F /  3.6 °C 30.3in /  1025.1hPa NW 2.9mph /  4.7km/h 8mph /  12.9km/h 73% 0in /  0.0mm 84 W/m2
15:51 46.9 °F /  8.3 °C 38.7 °F /  3.7 °C 30.3in /  1025.1hPa West 6mph /  9.7km/h 7mph /  11.3km/h 73% 0in /  0.0mm 63 W/m2
15:56 46.9 °F /  8.3 °C 38.7 °F /  3.7 °C 30.3in /  1025.1hPa Calm   5mph /  8km/h 73% 0in /  0.0mm 70 W/m2
16:01 46.9 °F /  8.3 °C 38.7 °F /  3.7 °C 30.3in /  1025.1hPa North 0.9mph /  1.4km/h 3mph /  4.8km/h 73% 0in /  0.0mm 54 W/m2
16:06 46.9 °F /  8.3 °C 38.7 °F /  3.7 °C 30.3in /  1025.1hPa SW 2.9mph /  4.7km/h 4mph /  6.4km/h 73% 0in /  0.0mm 58 W/m2
16:11 46.9 °F /  8.3 °C 38.7 °F /  3.7 °C 30.3in /  1025.1hPa West 2mph /  3.2km/h 4mph /  6.4km/h 73% 0in /  0.0mm 51 W/m2
16:16 46.9 °F /  8.3 °C 38.7 °F /  3.7 °C 30.3in /  1025.1hPa West 4mph /  6.4km/h 4mph /  6.4km/h 73% 0in /  0.0mm 60 W/m2
16:22 46.9 °F /  8.3 °C 39 °F /  3.9 °C 30.3in /  1024.7hPa Calm   2mph /  3.2km/h 74% 0in /  0.0mm 54 W/m2
16:27 46.9 °F /  8.3 °C 39 °F /  3.9 °C 30.3in /  1024.7hPa WNW 2.9mph /  4.7km/h 12mph /  19.3km/h 74% 0in /  0.0mm 37 W/m2
16:32 46.9 °F /  8.3 °C 39 °F /  3.9 °C 30.3in /  1024.7hPa North 2mph /  3.2km/h 3mph /  4.8km/h 74% 0in /  0.0mm 33 W/m2
16:37 46.9 °F /  8.3 °C 39 °F /  3.9 °C 30.3in /  1024.7hPa West 2.9mph /  4.7km/h 5mph /  8km/h 74% 0in /  0.0mm 32 W/m2
16:42 46.9 °F /  8.3 °C 39 °F /  3.9 °C 30.3in /  1024.7hPa WNW 0.9mph /  1.4km/h 8mph /  12.9km/h 74% 0in /  0.0mm 35 W/m2
16:47 46.8 °F /  8.2 °C 38.8 °F /  3.8 °C 30.3in /  1024.7hPa WSW 0.9mph /  1.4km/h 4mph /  6.4km/h 74% 0in /  0.0mm 25 W/m2
16:52 46.8 °F /  8.2 °C 38.8 °F /  3.8 °C 30.3in /  1024.7hPa SSW 4mph /  6.4km/h 5mph /  8km/h 74% 0in /  0.0mm 26 W/m2
16:57 46.8 °F /  8.2 °C 38.8 °F /  3.8 °C 30.3in /  1024.7hPa WNW 4mph /  6.4km/h 5mph /  8km/h 74% 0in /  0.0mm 35 W/m2
17:02 46.8 °F /  8.2 °C 38.8 °F /  3.8 °C 30.3in /  1024.7hPa ENE 2mph /  3.2km/h 5mph /  8km/h 74% 0in /  0.0mm 26 W/m2
17:07 46.8 °F /  8.2 °C 38.8 °F /  3.8 °C 30.3in /  1024.7hPa West 0.9mph /  1.4km/h 12mph /  19.3km/h 74% 0in /  0.0mm 25 W/m2
17:12 46.8 °F /  8.2 °C 39.2 °F /  4 °C 30.3in /  1024.7hPa NNW 2.9mph /  4.7km/h 4mph /  6.4km/h 75% 0in /  0.0mm 19 W/m2
17:18 46.6 °F /  8.1 °C 39.4 °F /  4.1 °C 30.3in /  1024.7hPa West 2mph /  3.2km/h 8mph /  12.9km/h 76% 0in /  0.0mm 28 W/m2
17:23 46.4 °F /  8 °C 39.2 °F /  4 °C 30.3in /  1024.7hPa SSW 4mph /  6.4km/h 9mph /  14.5km/h 76% 0in /  0.0mm 14 W/m2
17:28 46.2 °F /  7.9 °C 39 °F /  3.9 °C 30.3in /  1024.7hPa NW 0.9mph /  1.4km/h 7mph /  11.3km/h 76% 0in /  0.0mm 14 W/m2
17:33 46.2 °F /  7.9 °C 39 °F /  3.9 °C 30.3in /  1024.7hPa WNW 2.9mph /  4.7km/h 9mph /  14.5km/h 76% 0in /  0.0mm 16 W/m2
17:38 46 °F /  7.8 °C 38.8 °F /  3.8 °C 30.3in /  1024.7hPa WNW 4mph /  6.4km/h 5mph /  8km/h 76% 0in /  0.0mm 11 W/m2
17:43 45.9 °F /  7.7 °C 38.7 °F /  3.7 °C 30.3in /  1024.4hPa West 6mph /  9.7km/h 6mph /  9.7km/h 76% 0in /  0.0mm 9 W/m2
17:48 45.9 °F /  7.7 °C 39 °F /  3.9 °C 30.3in /  1024.7hPa SSW 4.9mph /  7.9km/h 9mph /  14.5km/h 77% 0in /  0.0mm 5 W/m2
17:53 45.7 °F /  7.6 °C 38.8 °F /  3.8 °C 30.3in /  1024.7hPa WNW 2.9mph /  4.7km/h 6mph /  9.7km/h 77% 0in /  0.0mm 0 W/m2
17:58 45.7 °F /  7.6 °C 39.2 °F /  4 °C 30.3in /  1024.7hPa West 0.9mph /  1.4km/h 9mph /  14.5km/h 78% 0in /  0.0mm 0 W/m2
18:03 45.7 °F /  7.6 °C 39.6 °F /  4.2 °C 30.3in /  1024.7hPa West 2mph /  3.2km/h 4mph /  6.4km/h 79% 0in /  0.0mm 0 W/m2
18:08 45.3 °F /  7.4 °C 39.6 °F /  4.2 °C 30.3in /  1024.7hPa North 2.9mph /  4.7km/h 3mph /  4.8km/h 80% 0in /  0.0mm 0 W/m2
18:13 45.1 °F /  7.3 °C 39.4 °F /  4.1 °C 30.3in /  1024.7hPa Calm   2mph /  3.2km/h 80% 0in /  0.0mm 0 W/m2
18:18 45.1 °F /  7.3 °C 39.7 °F /  4.3 °C 30.3in /  1024.4hPa NE 4mph /  6.4km/h 4mph /  6.4km/h 81% 0in /  0.0mm 0 W/m2
18:23 45 °F /  7.2 °C 39.6 °F /  4.2 °C 30.3in /  1024.4hPa West 2mph /  3.2km/h 8mph /  12.9km/h 81% 0in /  0.0mm 0 W/m2
18:28 45 °F /  7.2 °C 39.6 °F /  4.2 °C 30.3in /  1024.4hPa East 0.9mph /  1.4km/h 3mph /  4.8km/h 81% 0in /  0.0mm 0 W/m2
18:33 45 °F /  7.2 °C 39.6 °F /  4.2 °C 30.3in /  1024.7hPa West 0.9mph /  1.4km/h 8mph /  12.9km/h 81% 0in /  0.0mm 0 W/m2
18:38 45 °F /  7.2 °C 39.6 °F /  4.2 °C 30.3in /  1024.4hPa Calm   1mph /  1.6km/h 81% 0in /  0.0mm 0 W/m2
18:43 45 °F /  7.2 °C 39.6 °F /  4.2 °C 30.3in /  1024.4hPa ESE 2mph /  3.2km/h 2mph /  3.2km/h 81% 0in /  0.0mm 0 W/m2
18:48 44.8 °F /  7.1 °C 39.4 °F /  4.1 °C 30.3in /  1024.4hPa Calm   1mph /  1.6km/h 81% 0in /  0.0mm 0 W/m2
18:53 44.8 °F /  7.1 °C 39.6 °F /  4.2 °C 30.3in /  1024.4hPa NW 2.9mph /  4.7km/h 4mph /  6.4km/h 82% 0in /  0.0mm 0 W/m2
18:58 44.8 °F /  7.1 °C 39.6 °F /  4.2 °C 30.3in /  1024.4hPa North 0.9mph /  1.4km/h 2mph /  3.2km/h 82% 0in /  0.0mm 0 W/m2
19:03 44.8 °F /  7.1 °C 39.6 °F /  4.2 °C 30.2in /  1024.0hPa NE 2mph /  3.2km/h 2mph /  3.2km/h 82% 0in /  0.0mm 0 W/m2
19:08 44.8 °F /  7.1 °C 39.6 °F /  4.2 °C 30.2in /  1024.0hPa NNW 2mph /  3.2km/h 3mph /  4.8km/h 82% 0in /  0.0mm 0 W/m2
19:13 44.6 °F /  7 °C 39.4 °F /  4.1 °C 30.2in /  1024.0hPa Calm   4mph /  6.4km/h 82% 0in /  0.0mm 0 W/m2
19:18 44.8 °F /  7.1 °C 39.6 °F /  4.2 °C 30.2in /  1024.0hPa Calm   8mph /  12.9km/h 82% 0in /  0.0mm 0 W/m2
19:23 44.8 °F /  7.1 °C 39.6 °F /  4.2 °C 30.2in /  1024.0hPa NW 2mph /  3.2km/h 4mph /  6.4km/h 82% 0in /  0.0mm 0 W/m2
19:28 44.8 °F /  7.1 °C 39.6 °F /  4.2 °C 30.2in /  1024.0hPa North 0.9mph /  1.4km/h 8mph /  12.9km/h 82% 0in /  0.0mm 0 W/m2
19:33 44.8 °F /  7.1 °C 39.6 °F /  4.2 °C 30.2in /  1024.0hPa NNE 0.9mph /  1.4km/h 3mph /  4.8km/h 82% 0in /  0.0mm 0 W/m2
19:38 44.8 °F /  7.1 °C 39.6 °F /  4.2 °C 30.2in /  1024.0hPa WNW 2.9mph /  4.7km/h 5mph /  8km/h 82% 0in /  0.0mm 0 W/m2
19:43 44.8 °F /  7.1 °C 39.6 °F /  4.2 °C 30.2in /  1024.0hPa West 0.9mph /  1.4km/h 2mph /  3.2km/h 82% 0in /  0.0mm 0 W/m2
19:48 44.8 °F /  7.1 °C 39.6 °F /  4.2 °C 30.2in /  1024.0hPa NE 2mph /  3.2km/h 4mph /  6.4km/h 82% 0in /  0.0mm 0 W/m2
19:53 44.8 °F /  7.1 °C 39.6 °F /  4.2 °C 30.2in /  1024.0hPa NW 2mph /  3.2km/h 4mph /  6.4km/h 82% 0in /  0.0mm 0 W/m2
19:58 44.8 °F /  7.1 °C 39.6 °F /  4.2 °C 30.2in /  1024.0hPa NW 0.9mph /  1.4km/h 2mph /  3.2km/h 82% 0in /  0.0mm 0 W/m2
20:03 45 °F /  7.2 °C 39.6 °F /  4.2 °C 30.2in /  1024.0hPa NNE 2mph /  3.2km/h 2mph /  3.2km/h 81% 0in /  0.0mm 0 W/m2
20:08 45 °F /  7.2 °C 39.6 °F /  4.2 °C 30.2in /  1024.0hPa North 2mph /  3.2km/h 4mph /  6.4km/h 81% 0in /  0.0mm 0 W/m2
20:13 45 °F /  7.2 °C 39.6 °F /  4.2 °C 30.2in /  1023.7hPa NW 0.9mph /  1.4km/h 3mph /  4.8km/h 81% 0in /  0.0mm 0 W/m2
20:18 45 °F /  7.2 °C 39.6 °F /  4.2 °C 30.2in /  1024.0hPa NNW 2mph /  3.2km/h 3mph /  4.8km/h 81% 0in /  0.0mm 0 W/m2
20:23 45 °F /  7.2 °C 39.6 °F /  4.2 °C 30.2in /  1023.7hPa West 6mph /  9.7km/h 8mph /  12.9km/h 81% 0in /  0.0mm 0 W/m2
20:28 45 °F /  7.2 °C 39.6 °F /  4.2 °C 30.2in /  1023.7hPa NW 2mph /  3.2km/h 4mph /  6.4km/h 81% 0in /  0.0mm 0 W/m2
20:33 45 °F /  7.2 °C 39.6 °F /  4.2 °C 30.2in /  1024.0hPa NNW 2mph /  3.2km/h 2mph /  3.2km/h 81% 0in /  0.0mm 0 W/m2
20:38 45 °F /  7.2 °C 39.6 °F /  4.2 °C 30.2in /  1023.7hPa WSW 2mph /  3.2km/h 5mph /  8km/h 81% 0in /  0.0mm 0 W/m2
20:43 45 °F /  7.2 °C 39.6 °F /  4.2 °C 30.2in /  1023.7hPa West 4mph /  6.4km/h 6mph /  9.7km/h 81% 0in /  0.0mm 0 W/m2
20:48 44.8 °F /  7.1 °C 39.4 °F /  4.1 °C 30.2in /  1023.7hPa SSE 0.9mph /  1.4km/h 4mph /  6.4km/h 81% 0in /  0.0mm 0 W/m2
20:53 44.8 °F /  7.1 °C 39.4 °F /  4.1 °C 30.2in /  1023.7hPa Calm   4mph /  6.4km/h 81% 0in /  0.0mm 0 W/m2
20:58 44.6 °F /  7 °C 39.2 °F /  4 °C 30.2in /  1023.7hPa NW 2.9mph /  4.7km/h 5mph /  8km/h 81% 0in /  0.0mm 0 W/m2
21:03 44.6 °F /  7 °C 39.4 °F /  4.1 °C 30.2in /  1023.7hPa NW 4mph /  6.4km/h 5mph /  8km/h 82% 0in /  0.0mm 0 W/m2
21:08 44.4 °F /  6.9 °C 39.2 °F /  4 °C 30.2in /  1023.7hPa NW 4mph /  6.4km/h 6mph /  9.7km/h 82% 0in /  0.0mm 0 W/m2
21:13 44.4 °F /  6.9 °C 39.2 °F /  4 °C 30.2in /  1023.4hPa Calm   3mph /  4.8km/h 82% 0in /  0.0mm 0 W/m2
21:18 44.2 °F /  6.8 °C 39 °F /  3.9 °C 30.2in /  1023.4hPa NW 4mph /  6.4km/h 4mph /  6.4km/h 82% 0in /  0.0mm 0 W/m2
21:23 44.2 °F /  6.8 °C 39 °F /  3.9 °C 30.2in /  1023.4hPa WNW 2.9mph /  4.7km/h 6mph /  9.7km/h 82% 0in /  0.0mm 0 W/m2
21:28 44.2 °F /  6.8 °C 39.4 °F /  4.1 °C 30.2in /  1023.4hPa West 2.9mph /  4.7km/h 6mph /  9.7km/h 83% 0in /  0.0mm 0 W/m2
21:33 44.2 °F /  6.8 °C 39.4 °F /  4.1 °C 30.2in /  1023.4hPa ENE 2.9mph /  4.7km/h 4mph /  6.4km/h 83% 0in /  0.0mm 0 W/m2
21:38 44.1 °F /  6.7 °C 39.2 °F /  4 °C 30.2in /  1023.4hPa WNW 2mph /  3.2km/h 3mph /  4.8km/h 83% 0in /  0.0mm 0 W/m2
21:43 44.1 °F /  6.7 °C 39.2 °F /  4 °C 30.2in /  1023.4hPa West 2mph /  3.2km/h 4mph /  6.4km/h 83% 0in /  0.0mm 0 W/m2
21:48 43.9 °F /  6.6 °C 39 °F /  3.9 °C 30.2in /  1023.0hPa West 2mph /  3.2km/h 5mph /  8km/h 83% 0in /  0.0mm 0 W/m2
21:53 43.9 °F /  6.6 °C 39.4 °F /  4.1 °C 30.2in /  1023.0hPa WNW 2.9mph /  4.7km/h 4mph /  6.4km/h 84% 0in /  0.0mm 0 W/m2
21:58 43.7 °F /  6.5 °C 39.2 °F /  4 °C 30.2in /  1023.0hPa NE 2.9mph /  4.7km/h 3mph /  4.8km/h 84% 0in /  0.0mm 0 W/m2
22:03 43.5 °F /  6.4 °C 39 °F /  3.9 °C 30.2in /  1023.0hPa Calm   2mph /  3.2km/h 84% 0in /  0.0mm 0 W/m2
22:09 43.5 °F /  6.4 °C 39 °F /  3.9 °C 30.2in /  1023.0hPa West 0.9mph /  1.4km/h 8mph /  12.9km/h 84% 0in /  0.0mm 0 W/m2
22:14 43.3 °F /  6.3 °C 38.8 °F /  3.8 °C 30.2in /  1022.7hPa West 2.9mph /  4.7km/h 4mph /  6.4km/h 84% 0in /  0.0mm 0 W/m2
22:19 43.3 °F /  6.3 °C 39.2 °F /  4 °C 30.2in /  1022.7hPa NW 2.9mph /  4.7km/h 8mph /  12.9km/h 85% 0in /  0.0mm 0 W/m2
22:24 43.3 °F /  6.3 °C 39.2 °F /  4 °C 30.2in /  1022.7hPa NW 0.9mph /  1.4km/h 3mph /  4.8km/h 85% 0in /  0.0mm 0 W/m2
22:29 43.2 °F /  6.2 °C 39 °F /  3.9 °C 30.2in /  1022.7hPa North 0.9mph /  1.4km/h 1mph /  1.6km/h 85% 0in /  0.0mm 0 W/m2
22:34 43.2 °F /  6.2 °C 39 °F /  3.9 °C 30.2in /  1022.7hPa Calm   2mph /  3.2km/h 85% 0in /  0.0mm 0 W/m2
22:39 43.2 °F /  6.2 °C 39 °F /  3.9 °C 30.2in /  1022.4hPa North 0.9mph /  1.4km/h 4mph /  6.4km/h 85% 0in /  0.0mm 0 W/m2
22:44 43 °F /  6.1 °C 38.8 °F /  3.8 °C 30.2in /  1022.4hPa NNW 0.9mph /  1.4km/h 2mph /  3.2km/h 85% 0in /  0.0mm 0 W/m2
22:49 43 °F /  6.1 °C 38.8 °F /  3.8 °C 30.2in /  1022.4hPa North 2.9mph /  4.7km/h 4mph /  6.4km/h 85% 0in /  0.0mm 0 W/m2
22:54 43 °F /  6.1 °C 39 °F /  3.9 °C 30.2in /  1022.4hPa WNW 4.9mph /  7.9km/h 10mph /  16.1km/h 86% 0in /  0.0mm 0 W/m2
22:59 43.2 °F /  6.2 °C 39.2 °F /  4 °C 30.2in /  1022.4hPa NNW 4mph /  6.4km/h 4mph /  6.4km/h 86% 0in /  0.0mm 0 W/m2
23:04 43.2 °F /  6.2 °C 39 °F /  3.9 °C 30.2in /  1022.0hPa West 2.9mph /  4.7km/h 8mph /  12.9km/h 85% 0in /  0.0mm 0 W/m2
23:09 43 °F /  6.1 °C 38.8 °F /  3.8 °C 30.2in /  1022.0hPa NE 2mph /  3.2km/h 9mph /  14.5km/h 85% 0in /  0.0mm 0 W/m2
23:14 43 °F /  6.1 °C 39 °F /  3.9 °C 30.2in /  1022.0hPa NNW 4mph /  6.4km/h 5mph /  8km/h 86% 0in /  0.0mm 0 W/m2
23:19 43 °F /  6.1 °C 39 °F /  3.9 °C 30.2in /  1021.7hPa SW 2.9mph /  4.7km/h 7mph /  11.3km/h 86% 0in /  0.0mm 0 W/m2
23:24 43 °F /  6.1 °C 39 °F /  3.9 °C 30.2in /  1021.7hPa West 0.9mph /  1.4km/h 7mph /  11.3km/h 86% 0in /  0.0mm 0 W/m2
23:29 43 °F /  6.1 °C 39 °F /  3.9 °C 30.2in /  1021.7hPa West 2.9mph /  4.7km/h 7mph /  11.3km/h 86% 0in /  0.0mm 0 W/m2
23:34 43 °F /  6.1 °C 39 °F /  3.9 °C 30.2in /  1021.7hPa ESE 2mph /  3.2km/h 7mph /  11.3km/h 86% 0in /  0.0mm 0 W/m2
23:39 43 °F /  6.1 °C 39 °F /  3.9 °C 30.2in /  1021.3hPa NW 2.9mph /  4.7km/h 5mph /  8km/h 86% 0in /  0.0mm 0 W/m2
23:44 43.2 °F /  6.2 °C 39.2 °F /  4 °C 30.2in /  1021.3hPa NNW 4mph /  6.4km/h 4mph /  6.4km/h 86% 0in /  0.0mm 0 W/m2
23:49 43.2 °F /  6.2 °C 39.2 °F /  4 °C 30.2in /  1021.3hPa NW 4mph /  6.4km/h 5mph /  8km/h 86% 0in /  0.0mm 0 W/m2
23:54 43.2 °F /  6.2 °C 39.6 °F /  4.2 °C 30.2in /  1021.0hPa WNW 4mph /  6.4km/h 8mph /  12.9km/h 87% 0in /  0.0mm 0 W/m2
23:59 43.2 °F /  6.2 °C 39.6 °F /  4.2 °C 30.2in /  1021.0hPa East 2mph /  3.2km/h 4mph /  6.4km/h 87% 0in /  0.0mm 0 W/m2
Juneau County Weather
Compliments of Weather Underground - 4 mb